Hauptseite
METAR-TAF:

METAR-TAF

Flughäfen :

Heeresflugplatz Celle

Celle, Deutschland

Breite: 52-36N, Länge: 010-01E, Höhe: 39 m

Beobachtung

Neuester Wetterbericht von vor 11 Minuten, um 23:20 UTC
Wind 2 kt aus Ost
Temperatur 17°C
Luftfeuchtigkeit 59%
Luftdruck 1021 hPa
Sichtweite 10 km oder mehr
Leicht bewölkt in der Höhe von 15000 ft

METAR: ETHC 212320Z 09002KT 9999 FEW150 17/09 Q1021 BLU+

Zeit: 01:31 (23:31 UTC)

Prognose

Neuester Wetterbericht von vor 10 Stunden und 27 Minuten, um 13:04 UTC
Gültige Prognose vom 21 um 14 UTC bis 21 um 23 UTC
Wind 3 kt aus unterschiedlichen Richtungen
Sichtweite 10 km oder mehr
Leicht bewölkt in der Höhe von 5000 ft

TAF: ETHC 211304Z 2114/2123 VRB03KT 9999 NSW FEW050

Wetterbeobachtungen und Prognosen von mehr als 4000 Flughäfen (METAR und TAF Bericht).

Die verfügbaren Stationen werden durch gelbe und rote Markierungen auf der Karte dargestellt.

Führen Sie die Maus auf sie, um den Namen der Station zu sehen.

Darauf klicken, um die Beobachtung von Wetterbeobachtungen und Prognosen zu sehen.

Um die Karte zu ändern : klicken Sie auf den grünen Tasten mit einem schwarzen Kreuz Zum Vergrößern, auf den grünen Button mit einem Gedankenstrich zu verkleinern, oder auf die grünen Pfeile für benachbarte Karten.


METAR-TAF: